createdAt,value
2024-05-09T00:02:21.307Z,11.30
2024-05-09T00:04:53.764Z,11.30
2024-05-09T00:07:23.540Z,11.30
2024-05-09T00:09:53.321Z,11.30
2024-05-09T00:12:26.049Z,11.20
2024-05-09T00:14:56.100Z,11.20
2024-05-09T00:17:26.345Z,11.30
2024-05-09T00:19:58.767Z,11.30
2024-05-09T00:22:29.827Z,11.30
2024-05-09T00:24:59.572Z,11.30
2024-05-09T00:27:29.771Z,11.20
2024-05-09T00:30:00.598Z,11.30
2024-05-09T00:32:30.460Z,11.30
2024-05-09T00:35:03.082Z,11.20
2024-05-09T00:37:33.473Z,11.20
2024-05-09T00:40:03.660Z,11.20
2024-05-09T00:42:33.409Z,11.20
2024-05-09T00:45:03.168Z,11.20
2024-05-09T00:47:33.273Z,11.30
2024-05-09T00:50:09.911Z,11.30
2024-05-09T00:52:42.790Z,11.30
2024-05-09T00:55:15.851Z,11.30
2024-05-09T00:57:46.483Z,11.20
2024-05-09T01:00:26.109Z,11.20
2024-05-09T01:03:01.048Z,11.30
2024-05-09T01:05:34.929Z,11.40
2024-05-09T01:08:05.643Z,11.30
2024-05-09T01:10:36.421Z,11.30
2024-05-09T01:13:07.652Z,11.30
2024-05-09T01:15:38.041Z,11.30
2024-05-09T01:18:10.621Z,11.30
2024-05-09T01:20:45.303Z,11.30
2024-05-09T01:23:18.103Z,11.30
2024-05-09T01:25:48.859Z,11.30
2024-05-09T01:28:19.931Z,11.20
2024-05-09T01:30:50.268Z,11.20
2024-05-09T01:33:20.632Z,11.30
2024-05-09T01:35:50.545Z,11.30
2024-05-09T01:38:23.008Z,11.20
2024-05-09T01:40:52.923Z,11.20
2024-05-09T01:43:23.892Z,11.10
2024-05-09T01:45:53.652Z,11.20
2024-05-09T01:48:23.538Z,11.20
2024-05-09T01:50:53.579Z,11.20
2024-05-09T01:53:26.143Z,11.20
2024-05-09T01:55:56.355Z,11.20
2024-05-09T01:58:26.110Z,11.10
2024-05-09T02:00:55.827Z,11.10
2024-05-09T02:03:25.708Z,11.10
2024-05-09T02:05:55.687Z,11.10
2024-05-09T02:08:28.490Z,11.20
2024-05-09T02:10:58.438Z,11.20
2024-05-09T02:13:28.260Z,11.30
2024-05-09T02:15:58.684Z,11.30
2024-05-09T02:18:28.544Z,11.30
2024-05-09T02:20:58.442Z,11.30
2024-05-09T02:23:30.981Z,11.30
2024-05-09T02:26:00.825Z,11.40
2024-05-09T02:28:30.605Z,11.20
2024-05-09T02:31:00.322Z,11.20
2024-05-09T02:33:31.026Z,11.20
2024-05-09T02:36:00.949Z,11.20
2024-05-09T02:38:33.536Z,11.10
2024-05-09T02:41:00.773Z,11.20
2024-05-09T02:43:30.615Z,11.20
2024-05-09T02:45:57.748Z,11.30
2024-05-09T02:48:27.874Z,11.30
2024-05-09T02:50:55.086Z,11.40
2024-05-09T02:53:24.856Z,11.40
2024-05-09T02:55:54.746Z,11.40
2024-05-09T02:58:24.503Z,11.50
2024-05-09T03:00:51.644Z,11.50
2024-05-09T03:03:21.688Z,11.40
2024-05-09T03:05:49.139Z,11.40
2024-05-09T03:08:19.062Z,11.30
2024-05-09T03:10:46.317Z,11.30
2024-05-09T03:13:19.169Z,11.20
2024-05-09T03:15:46.286Z,11.30
2024-05-09T03:18:16.284Z,11.30
2024-05-09T03:20:44.718Z,11.20
2024-05-09T03:23:14.681Z,11.20
2024-05-09T03:25:41.823Z,11.30
2024-05-09T03:28:11.638Z,11.20
2024-05-09T03:30:43.113Z,11.20
2024-05-09T03:33:15.365Z,11.20
2024-05-09T03:35:43.455Z,11.20
2024-05-09T03:38:13.306Z,11.10
2024-05-09T03:40:48.478Z,11.00
2024-05-09T03:43:19.814Z,10.90
2024-05-09T03:45:50.800Z,10.90
2024-05-09T03:48:21.354Z,10.90
2024-05-09T03:50:49.010Z,10.80
2024-05-09T03:53:19.205Z,10.80
2024-05-09T03:55:47.584Z,10.80
2024-05-09T03:58:18.975Z,10.90
2024-05-09T04:00:46.244Z,11.00
2024-05-09T04:03:19.035Z,11.00
2024-05-09T04:05:46.546Z,11.00
2024-05-09T04:08:17.094Z,11.00
2024-05-09T04:10:44.391Z,11.00
2024-05-09T04:13:14.135Z,11.00
2024-05-09T04:15:41.325Z,11.00
2024-05-09T04:18:11.274Z,10.90
2024-05-09T04:20:41.594Z,11.00
2024-05-09T04:23:14.860Z,11.10
2024-05-09T04:25:43.074Z,11.10
2024-05-09T04:28:12.860Z,11.10
2024-05-09T04:30:41.673Z,11.00
2024-05-09T04:33:14.278Z,11.00
2024-05-09T04:35:45.308Z,10.90
2024-05-09T04:38:17.757Z,10.90
2024-05-09T04:40:47.788Z,11.00
2024-05-09T04:43:19.620Z,11.00
2024-05-09T04:45:46.976Z,11.00
2024-05-09T04:48:17.228Z,11.00
2024-05-09T04:50:47.179Z,11.10
2024-05-09T04:53:19.015Z,11.10
2024-05-09T04:55:46.447Z,11.20
2024-05-09T04:58:16.269Z,11.30
2024-05-09T05:00:45.754Z,11.20
2024-05-09T05:03:16.653Z,11.20
2024-05-09T05:05:47.037Z,11.20
2024-05-09T05:08:18.822Z,11.40
2024-05-09T05:10:47.942Z,11.40
2024-05-09T05:13:20.569Z,11.50
2024-05-09T05:15:49.667Z,11.60
2024-05-09T05:18:19.973Z,11.60
2024-05-09T05:20:50.401Z,11.50
2024-05-09T05:23:22.378Z,11.70
2024-05-09T05:25:52.275Z,11.90
2024-05-09T05:28:22.642Z,12.00
2024-05-09T05:30:50.189Z,12.00
2024-05-09T05:33:22.584Z,11.90
2024-05-09T05:35:54.371Z,11.90
2024-05-09T05:38:27.409Z,12.00
2024-05-09T05:40:55.752Z,12.20
2024-05-09T05:43:25.745Z,12.30
2024-05-09T05:45:53.033Z,12.50
2024-05-09T05:48:23.106Z,12.60
2024-05-09T05:50:50.399Z,12.70
2024-05-09T05:53:22.869Z,12.80
2024-05-09T05:55:50.130Z,12.70
2024-05-09T05:58:20.367Z,12.70
2024-05-09T06:00:51.089Z,12.90
2024-05-09T06:03:20.894Z,13.20
2024-05-09T06:05:48.131Z,13.50
2024-05-09T06:08:18.193Z,13.60
2024-05-09T06:10:48.118Z,13.90
2024-05-09T06:13:18.185Z,13.70
2024-05-09T06:15:45.409Z,13.60
2024-05-09T06:18:17.443Z,13.70
2024-05-09T06:20:45.190Z,13.60
2024-05-09T06:23:18.128Z,13.80
2024-05-09T06:25:50.575Z,14.20
2024-05-09T06:28:20.346Z,14.50
2024-05-09T06:30:47.462Z,14.70
2024-05-09T06:33:17.578Z,14.60
2024-05-09T06:36:06.250Z,14.50
2024-05-09T06:38:38.286Z,15.00
2024-05-09T06:41:08.280Z,15.30
2024-05-09T06:44:06.423Z,15.30
2024-05-09T06:46:33.939Z,15.70
2024-05-09T06:49:08.363Z,16.20
2024-05-09T06:51:36.744Z,16.60
2024-05-09T06:54:08.371Z,17.10
2024-05-09T06:56:39.834Z,17.00
2024-05-09T06:59:10.234Z,17.00
2024-05-09T07:01:37.863Z,17.80
2024-05-09T07:04:07.920Z,18.20
2024-05-09T07:06:35.163Z,18.70
2024-05-09T07:09:04.949Z,19.30
2024-05-09T07:11:33.366Z,18.70
2024-05-09T07:14:06.278Z,18.40
2024-05-09T07:16:35.257Z,17.40
2024-05-09T07:19:05.287Z,17.50
2024-05-09T07:21:32.650Z,18.30
2024-05-09T07:24:02.393Z,22.50
2024-05-09T07:26:29.671Z,25.90
2024-05-09T07:29:00.626Z,25.30
2024-05-09T07:31:31.673Z,25.40
2024-05-09T07:34:01.872Z,25.20
2024-05-09T07:36:29.303Z,22.90
2024-05-09T07:38:59.084Z,22.90
2024-05-09T07:41:26.368Z,22.90
2024-05-09T07:43:56.123Z,21.50
2024-05-09T07:47:14.668Z,20.90
2024-05-09T07:50:55.892Z,21.30
2024-05-09T07:53:27.034Z,21.30
2024-05-09T07:54:52.994Z,24.80
2024-05-09T07:57:20.352Z,27.00
2024-05-09T07:59:50.180Z,29.70
2024-05-09T08:02:17.472Z,29.50
2024-05-09T08:04:51.185Z,28.70
2024-05-09T08:07:20.173Z,30.00
2024-05-09T08:09:51.009Z,31.80
2024-05-09T08:12:21.096Z,32.60
2024-05-09T08:14:48.257Z,32.30
2024-05-09T08:17:18.263Z,30.90
2024-05-09T08:19:48.271Z,32.20
2024-05-09T08:22:18.152Z,31.90
2024-05-09T08:24:46.814Z,30.80
2024-05-09T08:27:16.633Z,29.60
2024-05-09T08:29:44.029Z,26.50
2024-05-09T08:32:14.880Z,25.00
2024-05-09T08:34:44.382Z,24.00
2024-05-09T08:37:22.363Z,23.40
2024-05-09T08:39:52.111Z,23.30
2024-05-09T08:42:25.096Z,24.00
2024-05-09T08:44:52.725Z,27.90
2024-05-09T08:47:22.969Z,29.80
2024-05-09T08:49:51.744Z,28.10
2024-05-09T08:52:24.146Z,25.70
2024-05-09T08:54:51.452Z,27.10
2024-05-09T08:57:23.124Z,25.60
2024-05-09T08:59:53.051Z,24.00
2024-05-09T09:02:24.770Z,23.50
2024-05-09T09:05:00.828Z,22.80
2024-05-09T09:07:35.779Z,23.80
2024-05-09T09:10:07.087Z,23.00
2024-05-09T09:12:38.617Z,22.80
2024-05-09T09:15:06.328Z,24.20
2024-05-09T09:17:36.219Z,25.20
2024-05-09T09:20:04.517Z,24.40
2024-05-09T09:22:39.868Z,23.60
2024-05-09T09:25:07.252Z,22.80
2024-05-09T09:27:37.205Z,22.20
2024-05-09T09:30:08.933Z,21.40
2024-05-09T09:32:43.416Z,20.60
2024-05-09T09:35:10.655Z,20.50
2024-05-09T09:37:44.238Z,20.40
2024-05-09T09:40:18.684Z,20.40
2024-05-09T09:42:52.976Z,21.20
2024-05-09T09:45:20.472Z,21.20
2024-05-09T09:47:51.398Z,21.30
2024-05-09T09:50:27.310Z,21.70
2024-05-09T09:53:06.330Z,20.90
2024-05-09T09:55:33.536Z,21.20
2024-05-09T09:58:03.746Z,20.50
2024-05-09T10:00:33.694Z,20.40
2024-05-09T10:03:06.967Z,21.20
2024-05-09T10:05:34.969Z,21.20
2024-05-09T10:08:10.023Z,21.40
2024-05-09T10:10:37.367Z,21.70
2024-05-09T10:13:08.671Z,21.40
2024-05-09T10:15:45.822Z,21.90
2024-05-09T10:18:16.128Z,21.70
2024-05-09T10:20:44.569Z,21.80
2024-05-09T10:23:30.964Z,22.50
2024-05-09T10:26:01.668Z,22.60
2024-05-09T10:28:32.011Z,22.50
2024-05-09T10:31:10.548Z,22.90
2024-05-09T10:33:41.873Z,22.60
2024-05-09T10:36:12.806Z,22.70
2024-05-09T10:38:46.509Z,21.80
2024-05-09T10:41:14.200Z,22.50
2024-05-09T10:43:45.530Z,22.20
2024-05-09T10:46:13.516Z,22.30
2024-05-09T10:48:45.592Z,21.70
2024-05-09T10:51:13.912Z,21.00
2024-05-09T10:53:47.468Z,20.90
2024-05-09T10:56:15.287Z,20.50
2024-05-09T10:58:45.120Z,20.40
2024-05-09T11:01:13.468Z,20.20
2024-05-09T11:03:43.797Z,19.60
2024-05-09T11:06:11.651Z,19.70
2024-05-09T11:08:42.271Z,19.40
2024-05-09T11:11:12.298Z,19.90
2024-05-09T11:13:43.866Z,19.70
2024-05-09T11:16:19.754Z,19.40
2024-05-09T11:18:57.952Z,19.30
2024-05-09T11:21:25.754Z,19.40
2024-05-09T11:23:56.168Z,19.70
2024-05-09T11:26:29.798Z,19.80
2024-05-09T11:28:59.868Z,20.00
2024-05-09T11:31:27.341Z,20.30
2024-05-09T11:33:57.637Z,20.50
2024-05-09T11:36:27.414Z,21.00
2024-05-09T11:38:57.220Z,21.00
2024-05-09T11:41:27.299Z,21.00
2024-05-09T11:43:57.947Z,20.40
2024-05-09T11:46:25.631Z,20.60
2024-05-09T11:48:56.550Z,21.10
2024-05-09T11:51:23.835Z,21.90
2024-05-09T11:53:53.842Z,21.80
2024-05-09T11:56:20.991Z,21.30
2024-05-09T11:58:53.374Z,21.10
2024-05-09T12:01:21.340Z,21.30
2024-05-09T12:03:54.674Z,21.60
2024-05-09T12:06:22.143Z,21.80
2024-05-09T12:08:53.097Z,21.70
2024-05-09T12:11:20.290Z,22.00
2024-05-09T12:13:55.918Z,22.00
2024-05-09T12:16:23.267Z,21.80
2024-05-09T12:18:53.355Z,22.30
2024-05-09T12:21:20.590Z,22.20
2024-05-09T12:23:50.325Z,22.40
2024-05-09T12:26:17.474Z,23.20
2024-05-09T12:28:47.218Z,22.60
2024-05-09T12:31:17.202Z,22.90
2024-05-09T12:33:47.106Z,22.70
2024-05-09T12:36:14.363Z,22.40
2024-05-09T12:38:44.098Z,22.50
2024-05-09T12:41:11.212Z,22.30
2024-05-09T12:43:40.967Z,22.40
2024-05-09T12:46:08.382Z,21.50
2024-05-09T12:48:40.947Z,21.50
2024-05-09T12:51:08.685Z,20.50
2024-05-09T12:53:38.978Z,21.40
2024-05-09T12:56:09.213Z,21.20
2024-05-09T12:58:39.403Z,21.10
2024-05-09T13:01:06.653Z,20.80
2024-05-09T13:03:36.793Z,21.10
2024-05-09T13:06:06.851Z,21.30
2024-05-09T13:08:37.219Z,21.30
2024-05-09T13:11:04.665Z,21.10
2024-05-09T13:13:34.391Z,20.40
2024-05-09T13:16:01.740Z,20.40
2024-05-09T13:18:33.438Z,20.60
2024-05-09T13:21:00.771Z,20.30
2024-05-09T13:23:34.100Z,20.00
2024-05-09T13:26:01.139Z,20.10
2024-05-09T13:28:32.348Z,20.00
2024-05-09T13:30:59.717Z,20.10
2024-05-09T13:33:29.891Z,19.90
2024-05-09T13:35:57.133Z,20.00
2024-05-09T13:38:26.975Z,20.00
2024-05-09T13:40:56.888Z,19.60
2024-05-09T13:43:26.970Z,19.40
2024-05-09T13:45:55.738Z,19.30
2024-05-09T13:48:25.629Z,19.70
2024-05-09T13:50:52.827Z,19.90
2024-05-09T13:53:22.600Z,19.90
2024-05-09T13:55:49.884Z,19.80
2024-05-09T13:58:23.398Z,19.40
2024-05-09T14:00:50.904Z,19.10
2024-05-09T14:03:21.467Z,19.00
2024-05-09T14:07:14.332Z,18.70
2024-05-09T14:09:45.165Z,18.50
2024-05-09T14:12:14.929Z,18.60
2024-05-09T14:14:42.080Z,18.20
2024-05-09T14:17:11.855Z,18.00
2024-05-09T14:19:39.542Z,17.80
2024-05-09T14:22:09.957Z,17.50
2024-05-09T14:24:39.936Z,17.70
2024-05-09T14:27:09.687Z,17.70
2024-05-09T14:29:36.890Z,17.80
2024-05-09T14:32:07.509Z,18.20
2024-05-09T14:34:34.775Z,18.50
2024-05-09T14:37:04.725Z,18.50
2024-05-09T14:39:31.899Z,18.60
2024-05-09T14:42:04.234Z,18.90
2024-05-09T14:44:31.424Z,19.20
2024-05-09T14:47:01.377Z,19.30
2024-05-09T14:49:28.601Z,18.70
2024-05-09T14:51:58.470Z,19.00
2024-05-09T14:54:25.632Z,18.80
2024-05-09T14:56:56.684Z,18.80
2024-05-09T14:59:26.425Z,19.10
2024-05-09T15:01:56.266Z,19.30
2024-05-09T15:04:26.904Z,19.30
2024-05-09T15:06:54.811Z,19.70
2024-05-09T15:09:24.655Z,19.70
2024-05-09T15:11:51.853Z,19.60
2024-05-09T15:14:23.286Z,19.30
2024-05-09T15:16:53.218Z,19.20
2024-05-09T15:19:23.228Z,18.90
2024-05-09T15:21:50.453Z,19.10
2024-05-09T15:24:20.289Z,19.30
2024-05-09T15:26:47.399Z,19.50
2024-05-09T15:29:17.246Z,19.70
2024-05-09T15:31:44.470Z,19.70
2024-05-09T15:34:16.867Z,19.40
2024-05-09T15:36:44.180Z,19.10
2024-05-09T15:39:14.210Z,19.00
2024-05-09T15:41:41.358Z,19.00
2024-05-09T15:44:11.144Z,18.80
2024-05-09T15:46:38.417Z,18.80
2024-05-09T15:49:08.365Z,18.60
2024-05-09T15:51:38.288Z,18.30
2024-05-09T15:54:08.202Z,18.30
2024-05-09T15:56:35.565Z,18.10
2024-05-09T15:59:05.455Z,18.10
2024-05-09T16:01:32.880Z,18.20
2024-05-09T16:04:03.052Z,18.00
2024-05-09T16:06:30.538Z,18.10
2024-05-09T16:09:02.978Z,18.30
2024-05-09T16:11:30.143Z,18.40
2024-05-09T16:13:59.957Z,18.80
2024-05-09T16:16:27.242Z,18.70
2024-05-09T16:18:57.285Z,18.80
2024-05-09T16:21:24.479Z,18.90
2024-05-09T16:23:54.218Z,18.90
2024-05-09T16:26:24.064Z,18.90
2024-05-09T16:28:53.811Z,18.80
2024-05-09T16:31:21.097Z,18.30
2024-05-09T16:33:51.059Z,18.10
2024-05-09T16:36:18.410Z,18.10
2024-05-09T16:38:48.118Z,18.20
2024-05-09T16:41:15.571Z,18.00
2024-05-09T16:43:47.903Z,18.00
2024-05-09T16:46:15.123Z,17.90
2024-05-09T16:48:46.288Z,17.70
2024-05-09T16:51:13.517Z,17.70
2024-05-09T16:53:43.259Z,17.70
2024-05-09T16:56:10.559Z,17.60
2024-05-09T16:58:40.349Z,17.80
2024-05-09T17:01:13.538Z,18.00
2024-05-09T17:03:43.476Z,17.80
2024-05-09T17:06:11.175Z,17.80
2024-05-09T17:08:41.692Z,17.60
2024-05-09T17:11:08.973Z,17.60
2024-05-09T17:13:39.373Z,17.40
2024-05-09T17:16:15.478Z,17.30
2024-05-09T17:18:46.260Z,17.20
2024-05-09T17:21:13.832Z,17.30
2024-05-09T17:23:43.544Z,17.40
2024-05-09T17:26:10.811Z,17.20
2024-05-09T17:28:40.898Z,17.20
2024-05-09T17:31:11.058Z,17.30
2024-05-09T17:33:42.479Z,17.30
2024-05-09T17:36:09.926Z,17.20
2024-05-09T17:38:39.732Z,17.00
2024-05-09T17:41:06.900Z,16.80
2024-05-09T17:43:36.732Z,16.50
2024-05-09T17:46:04.492Z,16.50
2024-05-09T17:48:37.062Z,16.50
2024-05-09T17:51:04.729Z,16.60
2024-05-09T17:53:34.477Z,16.50
2024-05-09T17:56:02.236Z,16.50
2024-05-09T17:58:32.099Z,16.40
2024-05-09T18:00:59.488Z,16.20
2024-05-09T18:03:30.189Z,16.10
2024-05-09T18:06:00.350Z,16.00
2024-05-09T18:08:30.190Z,16.00
2024-05-09T18:10:59.154Z,15.90
2024-05-09T18:13:29.401Z,15.90
2024-05-09T18:15:56.627Z,15.90
2024-05-09T18:18:26.574Z,15.80
2024-05-09T18:20:53.892Z,15.60
2024-05-09T18:23:26.262Z,15.50
2024-05-09T18:25:56.378Z,15.40
2024-05-09T18:28:26.541Z,15.40
2024-05-09T18:30:53.847Z,15.30
2024-05-09T18:33:24.490Z,15.20
2024-05-09T18:35:51.901Z,15.20
2024-05-09T18:38:25.553Z,15.10
2024-05-09T18:40:55.636Z,15.00
2024-05-09T18:43:31.167Z,14.80
2024-05-09T18:46:03.511Z,14.70
2024-05-09T18:48:33.437Z,14.50
2024-05-09T18:51:00.819Z,14.40
2024-05-09T18:53:30.618Z,14.30
2024-05-09T18:56:00.777Z,14.10
2024-05-09T18:58:30.568Z,13.90
2024-05-09T19:00:59.975Z,13.90
2024-05-09T19:03:31.408Z,13.70
2024-05-09T19:05:59.153Z,13.60
2024-05-09T19:08:29.012Z,13.40
2024-05-09T19:10:57.335Z,13.20
2024-05-09T19:13:30.108Z,13.10
2024-05-09T19:15:57.637Z,13.10
2024-05-09T19:18:27.937Z,12.90
2024-05-09T19:20:55.153Z,12.90
2024-05-09T19:23:24.998Z,12.90
2024-05-09T19:25:52.156Z,12.80
2024-05-09T19:28:21.980Z,12.60
2024-05-09T19:30:51.853Z,12.50
2024-05-09T19:33:21.678Z,12.30
2024-05-09T19:35:48.930Z,12.30
2024-05-09T19:38:18.790Z,12.20
2024-05-09T19:40:46.069Z,12.10
2024-05-09T19:43:16.144Z,12.00
2024-05-09T19:45:43.786Z,12.00
2024-05-09T19:48:16.641Z,11.90
2024-05-09T19:50:45.423Z,11.90
2024-05-09T19:53:16.201Z,11.80
2024-05-09T19:55:43.649Z,11.70
2024-05-09T19:58:13.976Z,11.70
2024-05-09T20:00:43.236Z,11.60
2024-05-09T20:03:17.074Z,11.50
2024-05-09T20:05:46.794Z,11.40
2024-05-09T20:08:17.227Z,11.30
2024-05-09T20:10:44.635Z,11.20
2024-05-09T20:13:14.847Z,11.20
2024-05-09T20:15:42.375Z,11.10
2024-05-09T20:18:12.852Z,11.10
2024-05-09T20:20:44.685Z,11.00
2024-05-09T20:23:15.735Z,10.80
2024-05-09T20:25:43.007Z,10.80
2024-05-09T20:28:12.912Z,10.80
2024-05-09T20:30:40.338Z,10.70
2024-05-09T20:33:10.693Z,10.50
2024-05-09T20:35:38.110Z,10.40
2024-05-09T20:38:12.209Z,10.50
2024-05-09T20:40:40.151Z,10.50
2024-05-09T20:43:11.342Z,10.40
2024-05-09T20:45:39.337Z,10.40
2024-05-09T20:48:11.924Z,10.30
2024-05-09T20:50:41.805Z,10.20
2024-05-09T20:53:15.728Z,10.20
2024-05-09T20:55:43.487Z,10.10
2024-05-09T20:58:13.946Z,10.10
2024-05-09T21:00:44.501Z,10.00
2024-05-09T21:03:17.102Z,10.00
2024-05-09T21:05:46.069Z,10.00
2024-05-09T21:08:19.757Z,9.90
2024-05-09T21:10:47.417Z,9.90
2024-05-09T21:13:17.567Z,9.80
2024-05-09T21:15:44.819Z,9.80
2024-05-09T21:18:14.673Z,9.80
2024-05-09T21:20:42.115Z,9.70
2024-05-09T21:23:11.824Z,9.70
2024-05-09T21:25:41.620Z,9.60
2024-05-09T21:28:11.456Z,9.60
2024-05-09T21:30:42.279Z,9.50
2024-05-09T21:33:14.741Z,9.40
2024-05-09T21:35:43.615Z,9.30
2024-05-09T21:38:14.587Z,9.30
2024-05-09T21:40:45.343Z,9.20
2024-05-09T21:43:15.581Z,9.20
2024-05-09T21:45:43.298Z,9.20
2024-05-09T21:48:15.560Z,9.20
2024-05-09T21:50:42.972Z,9.30
2024-05-09T21:53:13.708Z,9.20
2024-05-09T21:55:44.450Z,9.20
2024-05-09T21:58:14.932Z,9.10
2024-05-09T22:00:45.686Z,9.10
2024-05-09T22:03:16.484Z,9.00
2024-05-09T22:05:45.021Z,9.00
2024-05-09T22:08:15.329Z,9.00
2024-05-09T22:10:45.229Z,8.90
2024-05-09T22:13:16.846Z,8.90
2024-05-09T22:15:44.297Z,9.00
2024-05-09T22:18:14.398Z,9.10
2024-05-09T22:20:45.343Z,9.10
2024-05-09T22:23:16.463Z,9.00
2024-05-09T22:25:46.264Z,9.00
2024-05-09T22:28:17.631Z,9.00
2024-05-09T22:30:47.056Z,9.00
2024-05-09T22:33:17.580Z,8.90
2024-05-09T22:35:45.246Z,8.80
2024-05-09T22:38:15.183Z,8.80
2024-05-09T22:40:47.801Z,8.70
2024-05-09T22:43:24.587Z,8.70
2024-05-09T22:45:52.993Z,8.80
2024-05-09T22:48:23.660Z,8.80
2024-05-09T22:50:51.438Z,8.70
2024-05-09T22:53:21.429Z,8.70
2024-05-09T22:55:48.626Z,8.70
2024-05-09T22:58:19.109Z,8.80
2024-05-09T23:00:49.183Z,8.80
2024-05-09T23:03:21.499Z,8.70
2024-05-09T23:05:49.112Z,8.70
2024-05-09T23:08:18.930Z,8.70
2024-05-09T23:10:46.305Z,8.70
2024-05-09T23:13:16.316Z,8.70
2024-05-09T23:15:43.670Z,8.70
2024-05-09T23:18:16.238Z,8.60
2024-05-09T23:20:43.656Z,8.60
2024-05-09T23:23:13.625Z,8.50
2024-05-09T23:25:41.925Z,8.50
2024-05-09T23:28:12.499Z,8.50
2024-05-09T23:30:41.272Z,8.40
2024-05-09T23:33:15.123Z,8.30
2024-05-09T23:35:42.434Z,8.30
2024-05-09T23:38:12.305Z,8.30
2024-05-09T23:40:41.406Z,8.30
2024-05-09T23:43:13.125Z,8.30
2024-05-09T23:45:40.942Z,8.30
2024-05-09T23:48:11.767Z,8.20
2024-05-09T23:50:41.953Z,8.20
2024-05-09T23:53:11.791Z,8.10
2024-05-09T23:55:39.356Z,8.20
2024-05-09T23:58:09.811Z,8.20
